createdAt,value
2019-04-13T00:02:16.678Z,4.53
2019-04-13T00:05:00.512Z,4.77
2019-04-13T00:07:30.632Z,5.00
2019-04-13T00:10:01.679Z,5.07
2019-04-13T00:12:33.428Z,4.87
2019-04-13T00:15:04.410Z,6.30
2019-04-13T00:17:34.589Z,5.07
2019-04-13T00:20:06.042Z,3.93
2019-04-13T00:22:36.158Z,4.40
2019-04-13T00:25:06.384Z,4.40
2019-04-13T00:27:36.397Z,4.80
2019-04-13T00:30:08.153Z,5.40
2019-04-13T00:32:38.174Z,5.03
2019-04-13T00:35:08.292Z,4.90
2019-04-13T00:37:38.408Z,5.37
2019-04-13T00:40:08.531Z,4.90
2019-04-13T00:42:38.649Z,4.27
2019-04-13T00:45:09.076Z,4.70
2019-04-13T00:47:39.299Z,4.67
2019-04-13T00:50:09.216Z,4.87
2019-04-13T00:52:40.972Z,4.50
2019-04-13T00:55:12.110Z,4.67
2019-04-13T00:57:42.230Z,4.40
2019-04-13T01:00:12.758Z,3.70
2019-04-13T01:02:42.878Z,3.50
2019-04-13T01:05:13.202Z,3.93
2019-04-13T01:07:56.990Z,3.57
2019-04-13T01:10:27.114Z,3.30
2019-04-13T01:12:57.248Z,2.97
2019-04-13T01:15:28.279Z,2.87
2019-04-13T01:17:58.743Z,3.70
2019-04-13T01:20:31.119Z,3.40
2019-04-13T01:23:01.449Z,3.00
2019-04-13T01:25:31.665Z,2.60
2019-04-13T01:28:01.942Z,3.20
2019-04-13T01:30:32.010Z,2.90
2019-04-13T01:33:02.127Z,2.73
2019-04-13T01:35:32.655Z,3.63
2019-04-13T01:38:02.775Z,3.03
2019-04-13T01:40:32.893Z,2.70
2019-04-13T01:43:03.013Z,3.10
2019-04-13T01:45:33.645Z,3.27
2019-04-13T01:48:03.870Z,2.50
2019-04-13T01:50:34.086Z,2.90
2019-04-13T01:53:04.207Z,2.80
2019-04-13T01:55:34.327Z,2.57
2019-04-13T01:58:04.444Z,2.53
2019-04-13T02:00:38.863Z,2.80
2019-04-13T02:03:08.880Z,3.23
2019-04-13T02:05:40.637Z,3.83
2019-04-13T02:08:27.347Z,3.20
2019-04-13T02:10:59.207Z,3.00
2019-04-13T02:13:29.431Z,2.97
2019-04-13T02:15:59.650Z,3.30
2019-04-13T02:18:29.770Z,2.87
2019-04-13T02:21:00.095Z,3.50
2019-04-13T02:23:30.315Z,2.43
2019-04-13T02:26:01.151Z,3.40
2019-04-13T02:28:31.274Z,3.70
2019-04-13T02:31:01.797Z,3.00
2019-04-13T02:33:31.918Z,3.80
2019-04-13T02:36:02.039Z,3.40
2019-04-13T02:38:32.360Z,2.90
2019-04-13T02:41:02.481Z,3.13
2019-04-13T02:43:34.237Z,2.60
2019-04-13T02:46:04.572Z,3.97
2019-04-13T02:48:34.815Z,3.37
2019-04-13T02:51:04.904Z,3.57
2019-04-13T02:53:35.021Z,3.97
2019-04-13T02:56:05.141Z,4.10
2019-04-13T02:58:35.259Z,3.47
2019-04-13T03:01:05.640Z,3.20
2019-04-13T03:03:37.341Z,4.77
2019-04-13T03:06:07.458Z,3.77
2019-04-13T03:08:37.686Z,4.00
2019-04-13T03:11:07.802Z,4.43
2019-04-13T03:13:37.920Z,4.47
2019-04-13T03:16:26.419Z,3.80
2019-04-13T03:19:00.998Z,3.97
2019-04-13T03:21:31.114Z,3.83
2019-04-13T03:24:01.334Z,4.70
2019-04-13T03:26:31.661Z,4.93
2019-04-13T03:29:02.392Z,4.97
2019-04-13T03:31:32.614Z,4.40
2019-04-13T03:34:02.732Z,5.13
2019-04-13T03:36:32.853Z,5.70
2019-04-13T03:39:02.979Z,4.73
2019-04-13T03:41:33.088Z,5.93
2019-04-13T03:44:03.211Z,5.13
2019-04-13T03:46:33.332Z,4.90
2019-04-13T03:49:03.454Z,5.93
2019-04-13T03:51:33.568Z,4.83
2019-04-13T03:54:03.686Z,6.13
2019-04-13T03:56:33.709Z,5.13
2019-04-13T03:59:03.925Z,6.20
2019-04-13T04:01:33.947Z,5.50
2019-04-13T04:04:04.060Z,5.60
2019-04-13T04:06:34.178Z,6.07
2019-04-13T04:09:05.734Z,5.70
2019-04-13T04:11:36.467Z,5.50
2019-04-13T04:14:06.791Z,5.17
2019-04-13T04:16:37.317Z,6.30
2019-04-13T04:19:07.437Z,6.10
2019-04-13T04:21:37.452Z,5.77
2019-04-13T04:24:07.331Z,6.03
2019-04-13T04:26:37.489Z,6.37
2019-04-13T04:29:07.402Z,5.63
2019-04-13T04:31:37.523Z,7.00
2019-04-13T04:34:07.641Z,5.83
2019-04-13T04:36:37.763Z,5.67
2019-04-13T04:39:07.879Z,6.40
2019-04-13T04:41:39.225Z,5.10
2019-04-13T04:44:09.346Z,5.10
2019-04-13T04:46:39.471Z,5.57
2019-04-13T04:49:09.585Z,5.17
2019-04-13T04:51:39.705Z,5.00
2019-04-13T04:54:09.722Z,5.13
2019-04-13T04:56:39.843Z,5.03
2019-04-13T04:59:10.163Z,5.17
2019-04-13T05:01:40.281Z,5.53
2019-04-13T05:04:10.404Z,5.07
2019-04-13T05:06:40.519Z,5.13
2019-04-13T05:09:10.641Z,4.80
2019-04-13T05:11:40.862Z,5.17
2019-04-13T05:14:10.983Z,4.30
2019-04-13T05:16:41.107Z,4.00
2019-04-13T05:19:11.220Z,4.83
2019-04-13T05:21:41.440Z,4.50
2019-04-13T05:24:12.074Z,4.63
2019-04-13T05:26:44.962Z,4.87
2019-04-13T05:29:15.186Z,4.70
2019-04-13T05:31:45.402Z,4.30
2019-04-13T05:34:15.519Z,4.77
2019-04-13T05:36:47.908Z,4.70
2019-04-13T05:39:17.293Z,4.60
2019-04-13T05:41:47.650Z,3.90
2019-04-13T05:44:17.743Z,4.40
2019-04-13T05:46:47.857Z,4.63
2019-04-13T05:49:18.181Z,4.07
2019-04-13T05:51:48.297Z,4.23
2019-04-13T05:54:24.086Z,4.40
2019-04-13T05:56:55.601Z,3.30
2019-04-13T05:59:25.631Z,3.57
2019-04-13T06:01:55.740Z,4.50
2019-04-13T06:04:25.890Z,4.20
2019-04-13T06:07:00.060Z,4.00
2019-04-13T06:09:27.642Z,4.50
2019-04-13T06:11:57.852Z,3.40
2019-04-13T06:14:30.484Z,4.53
2019-04-13T06:17:00.346Z,4.03
2019-04-13T06:19:30.464Z,4.23
2019-04-13T06:22:00.585Z,3.93
2019-04-13T06:24:32.259Z,3.80
2019-04-13T06:27:02.255Z,2.87
2019-04-13T06:29:32.374Z,4.00
2019-04-13T06:32:04.233Z,3.77
2019-04-13T06:34:41.930Z,3.40
2019-04-13T06:37:12.703Z,3.70
2019-04-13T06:39:43.096Z,3.40
2019-04-13T06:42:16.137Z,3.70
2019-04-13T06:44:44.967Z,3.60
2019-04-13T06:47:15.092Z,3.90
2019-04-13T06:49:45.214Z,2.93
2019-04-13T06:52:15.326Z,3.10
2019-04-13T06:54:45.442Z,3.13
2019-04-13T06:57:15.565Z,2.37
2019-04-13T06:59:45.683Z,3.47
2019-04-13T07:02:15.905Z,3.73
2019-04-13T07:04:46.335Z,2.70
2019-04-13T07:07:44.758Z,3.07
2019-04-13T07:10:14.012Z,3.60
2019-04-13T07:12:48.849Z,3.70
2019-04-13T07:15:19.167Z,4.33
2019-04-13T07:17:49.284Z,4.73
2019-04-13T07:20:19.403Z,3.83
2019-04-13T07:22:53.912Z,4.03
2019-04-13T07:25:21.281Z,3.53
2019-04-13T07:27:52.878Z,4.43
2019-04-13T07:30:23.061Z,3.57
2019-04-13T07:32:53.175Z,3.63
2019-04-13T07:35:23.297Z,3.17
2019-04-13T07:37:53.412Z,3.60
2019-04-13T07:40:23.541Z,3.30
2019-04-13T07:42:53.858Z,5.03
2019-04-13T07:45:28.686Z,3.67
2019-04-13T07:48:03.719Z,3.43
2019-04-13T07:50:48.071Z,3.40
2019-04-13T07:53:23.005Z,3.27
2019-04-13T07:55:57.334Z,3.33
2019-04-13T07:58:25.907Z,3.43
2019-04-13T08:00:58.453Z,3.33
2019-04-13T08:03:27.680Z,3.10
2019-04-13T08:05:57.825Z,3.07
2019-04-13T08:08:39.301Z,3.50
2019-04-13T08:10:59.990Z,4.33
2019-04-13T08:13:30.001Z,3.90
2019-04-13T08:16:00.536Z,3.37
2019-04-13T08:18:32.292Z,3.73
2019-04-13T08:21:04.292Z,3.57
2019-04-13T08:23:34.163Z,4.30
2019-04-13T08:26:04.486Z,4.63
2019-04-13T08:28:34.607Z,4.93
2019-04-13T08:31:04.731Z,4.33
2019-04-13T08:33:34.848Z,4.23
2019-04-13T08:36:04.965Z,4.73
2019-04-13T08:38:35.092Z,4.03
2019-04-13T08:41:11.235Z,4.10
2019-04-13T08:43:37.031Z,3.70
2019-04-13T08:46:07.205Z,3.87
2019-04-13T08:48:37.300Z,4.07
2019-04-13T08:51:07.428Z,4.07
2019-04-13T08:53:37.744Z,4.30
2019-04-13T08:56:07.869Z,3.53
2019-04-13T08:58:39.253Z,4.10
2019-04-13T09:01:09.946Z,3.37
2019-04-13T09:03:40.273Z,3.63
2019-04-13T09:06:10.530Z,2.77
2019-04-13T09:08:40.915Z,3.57
2019-04-13T09:11:14.272Z,48.93
2019-04-13T09:13:42.594Z,34.50
2019-04-13T09:16:12.859Z,24.43
2019-04-13T09:18:48.455Z,23.40
2019-04-13T09:21:22.364Z,25.53
2019-04-13T09:23:51.977Z,21.90
2019-04-13T09:26:22.094Z,20.27
2019-04-13T09:28:52.213Z,17.80
2019-04-13T09:31:25.212Z,15.30
2019-04-13T09:33:53.987Z,13.60
2019-04-13T09:36:28.620Z,13.03
2019-04-13T09:38:56.425Z,13.03
2019-04-13T09:41:26.602Z,10.77
2019-04-13T09:44:00.813Z,10.87
2019-04-13T09:46:30.933Z,9.00
2019-04-13T09:49:01.057Z,8.27
2019-04-13T09:51:31.170Z,7.50
2019-04-13T09:54:01.295Z,7.47
2019-04-13T09:56:37.129Z,6.50
2019-04-13T09:59:03.273Z,5.77
2019-04-13T10:01:33.426Z,5.90
2019-04-13T10:04:04.335Z,6.40
2019-04-13T10:06:34.450Z,6.07
2019-04-13T10:09:08.532Z,5.87
2019-04-13T10:11:40.625Z,5.87
2019-04-13T10:14:28.362Z,5.47
2019-04-13T10:17:02.983Z,5.00
2019-04-13T10:19:33.099Z,5.10
2019-04-13T10:22:03.218Z,5.10
2019-04-13T10:24:36.685Z,5.20
2019-04-13T10:27:09.192Z,5.43
2019-04-13T10:29:39.320Z,5.17
2019-04-13T10:32:09.430Z,5.23
2019-04-13T10:34:39.753Z,4.60
2019-04-13T10:37:09.895Z,4.67
2019-04-13T10:39:46.353Z,4.40
2019-04-13T10:42:14.825Z,3.90
2019-04-13T10:44:49.355Z,4.40
2019-04-13T10:47:28.634Z,4.23
2019-04-13T10:50:00.233Z,4.27
2019-04-13T10:52:30.352Z,3.67
2019-04-13T10:55:00.571Z,3.77
2019-04-13T10:57:30.607Z,4.00
2019-04-13T11:00:00.813Z,3.77
2019-04-13T11:02:31.135Z,4.33
2019-04-13T11:05:01.266Z,4.20
2019-04-13T11:07:32.372Z,3.73
2019-04-13T11:10:03.144Z,4.93
2019-04-13T11:12:33.456Z,4.10
2019-04-13T11:15:03.887Z,4.80
2019-04-13T11:17:34.111Z,4.03
2019-04-13T11:20:04.898Z,4.40
2019-04-13T11:22:35.672Z,4.80
2019-04-13T11:25:07.228Z,4.70
2019-04-13T11:27:37.661Z,5.80
2019-04-13T11:30:08.694Z,4.27
2019-04-13T11:32:38.920Z,5.30
2019-04-13T11:35:09.289Z,5.30
2019-04-13T11:37:39.559Z,4.53
2019-04-13T11:40:11.116Z,5.70
2019-04-13T11:42:59.682Z,5.00
2019-04-13T11:45:34.300Z,5.37
2019-04-13T11:48:12.163Z,5.10
2019-04-13T11:50:44.159Z,5.17
2019-04-13T11:53:14.480Z,5.40
2019-04-13T11:55:44.599Z,6.00
2019-04-13T11:58:14.723Z,5.47
2019-04-13T12:00:49.346Z,5.27
2019-04-13T12:03:30.320Z,5.37
2019-04-13T12:06:05.562Z,5.10
2019-04-13T12:08:41.203Z,6.20
2019-04-13T12:11:12.962Z,6.10
2019-04-13T12:13:53.732Z,4.93
2019-04-13T12:16:31.429Z,5.60
2019-04-13T12:19:03.391Z,5.47
2019-04-13T12:21:47.129Z,4.73
2019-04-13T12:24:22.264Z,5.90
2019-04-13T12:26:52.595Z,4.87
2019-04-13T12:29:22.713Z,5.97
2019-04-13T12:31:52.828Z,5.93
2019-04-13T12:34:23.926Z,6.27
2019-04-13T12:36:53.975Z,6.03
2019-04-13T12:39:25.046Z,6.30
2019-04-13T12:41:59.169Z,5.33
2019-04-13T12:44:37.130Z,5.73
2019-04-13T12:47:01.918Z,6.10
2019-04-13T12:49:32.166Z,7.07
2019-04-13T12:52:02.486Z,5.67
2019-04-13T12:54:36.912Z,5.93
2019-04-13T12:57:04.368Z,5.43
2019-04-13T12:59:36.522Z,5.80
2019-04-13T13:02:10.955Z,5.00
2019-04-13T13:04:45.783Z,5.90
2019-04-13T13:07:16.017Z,5.60
2019-04-13T13:09:46.226Z,4.97
2019-04-13T13:12:16.307Z,5.77
2019-04-13T13:14:46.383Z,5.60
2019-04-13T13:17:18.429Z,5.80
2019-04-13T13:19:48.646Z,5.73
2019-04-13T13:22:18.971Z,5.30
2019-04-13T13:24:49.091Z,6.10
2019-04-13T13:27:19.212Z,5.43
2019-04-13T13:29:49.333Z,6.00
2019-04-13T13:32:19.652Z,4.90
2019-04-13T13:34:49.774Z,5.97
2019-04-13T13:37:20.198Z,6.00
2019-04-13T13:39:50.419Z,5.37
2019-04-13T13:42:20.744Z,5.30
2019-04-13T13:44:51.939Z,5.50
2019-04-13T13:47:24.132Z,5.50
2019-04-13T13:49:54.382Z,5.87
2019-04-13T13:52:24.709Z,5.40
2019-04-13T13:54:55.027Z,5.80
2019-04-13T13:57:25.281Z,6.03
2019-04-13T13:59:55.573Z,4.90
2019-04-13T14:02:30.507Z,5.20
2019-04-13T14:05:01.271Z,4.63
2019-04-13T14:07:32.884Z,5.80
2019-04-13T14:10:05.673Z,5.43
2019-04-13T14:12:35.792Z,5.43
2019-04-13T14:15:10.427Z,5.67
2019-04-13T14:17:39.718Z,5.50
2019-04-13T14:20:11.196Z,4.70
2019-04-13T14:22:41.392Z,5.70
2019-04-13T14:25:11.715Z,5.10
2019-04-13T14:27:41.942Z,6.43
2019-04-13T14:30:12.466Z,5.77
2019-04-13T14:32:42.585Z,5.60
2019-04-13T14:35:14.270Z,6.00
2019-04-13T14:37:44.218Z,5.93
2019-04-13T14:40:14.944Z,5.83
2019-04-13T14:42:46.072Z,6.20
2019-04-13T14:45:16.569Z,5.80
2019-04-13T14:47:46.885Z,5.73
2019-04-13T14:50:17.525Z,6.10
2019-04-13T14:52:47.633Z,6.13
2019-04-13T14:55:17.758Z,6.07
2019-04-13T14:57:48.078Z,6.50
2019-04-13T15:00:21.082Z,5.63
2019-04-13T15:02:51.286Z,7.03
2019-04-13T15:05:21.511Z,8.43
2019-04-13T15:07:51.624Z,6.03
2019-04-13T15:10:25.502Z,6.10
2019-04-13T15:12:53.502Z,6.00
2019-04-13T15:15:24.404Z,7.37
2019-04-13T15:17:56.389Z,5.87
2019-04-13T15:20:34.000Z,5.90
2019-04-13T15:23:01.228Z,6.10
2019-04-13T15:25:31.024Z,5.63
2019-04-13T15:28:02.416Z,5.93
2019-04-13T15:30:33.316Z,6.20
2019-04-13T15:33:09.137Z,5.90
2019-04-13T15:35:36.738Z,6.20
2019-04-13T15:38:07.294Z,5.23
2019-04-13T15:40:38.838Z,5.50
2019-04-13T15:43:16.765Z,5.90
2019-04-13T15:45:44.264Z,6.03
2019-04-13T15:48:12.477Z,6.13
2019-04-13T15:50:42.699Z,6.13
2019-04-13T15:53:13.878Z,6.80
2019-04-13T15:55:44.169Z,6.43
2019-04-13T15:58:14.347Z,5.83
2019-04-13T16:00:45.920Z,6.00
2019-04-13T16:03:17.015Z,5.60
2019-04-13T16:05:47.421Z,5.50
2019-04-13T16:08:18.014Z,5.90
2019-04-13T16:11:07.430Z,5.90
2019-04-13T16:13:38.989Z,6.23
2019-04-13T16:16:11.404Z,5.70
2019-04-13T16:18:41.676Z,6.80
2019-04-13T16:21:12.740Z,5.50
2019-04-13T16:23:44.618Z,4.83
2019-04-13T16:26:15.199Z,6.43
2019-04-13T16:28:50.450Z,5.87
2019-04-13T16:31:39.661Z,5.10
2019-04-13T16:34:28.146Z,5.10
2019-04-13T16:37:02.671Z,5.70
2019-04-13T16:39:33.300Z,5.60
2019-04-13T16:42:11.686Z,5.53
2019-04-13T16:44:43.957Z,5.87
2019-04-13T16:47:31.113Z,5.80
2019-04-13T16:50:05.628Z,5.50
2019-04-13T16:52:53.129Z,6.67
2019-04-13T16:55:25.113Z,6.90
2019-04-13T16:58:00.788Z,7.00
2019-04-13T17:00:42.561Z,6.97
2019-04-13T17:03:15.033Z,7.07
2019-04-13T17:05:46.786Z,6.70
2019-04-13T17:08:16.908Z,7.10
2019-04-13T17:10:47.138Z,7.33
2019-04-13T17:13:18.191Z,7.17
2019-04-13T17:15:48.697Z,6.70
2019-04-13T17:18:38.886Z,6.70
2019-04-13T17:21:22.798Z,6.40
2019-04-13T17:23:58.411Z,6.33
2019-04-13T17:26:37.814Z,6.57
2019-04-13T17:29:13.187Z,7.00
2019-04-13T17:31:45.121Z,6.47
2019-04-13T17:34:16.927Z,7.00
2019-04-13T17:36:49.928Z,6.87
2019-04-13T17:39:20.930Z,6.80
2019-04-13T17:41:56.898Z,7.40
2019-04-13T17:44:29.134Z,7.20
2019-04-13T17:47:07.948Z,7.27
2019-04-13T17:49:59.213Z,7.03
2019-04-13T17:52:48.611Z,8.13
2019-04-13T17:55:29.756Z,7.07
2019-04-13T17:58:05.051Z,6.27
2019-04-13T18:00:37.242Z,7.07
2019-04-13T18:03:26.410Z,5.70
2019-04-13T18:06:02.913Z,6.50
2019-04-13T18:08:43.086Z,6.43
2019-04-13T18:11:21.729Z,6.20
2019-04-13T18:14:10.882Z,6.33
2019-04-13T18:16:51.379Z,6.17
2019-04-13T18:19:21.684Z,6.90
2019-04-13T18:21:52.017Z,6.60
2019-04-13T18:24:22.127Z,5.80
2019-04-13T18:26:52.456Z,6.00
2019-04-13T18:29:23.820Z,6.33
2019-04-13T18:31:54.619Z,6.97
2019-04-13T18:34:26.803Z,6.47
2019-04-13T18:36:57.151Z,6.70
2019-04-13T18:39:27.764Z,5.43
2019-04-13T18:42:01.252Z,6.37
2019-04-13T18:44:32.214Z,6.03
2019-04-13T18:47:03.456Z,6.17
2019-04-13T18:49:34.600Z,6.17
2019-04-13T18:52:05.209Z,6.90
2019-04-13T18:54:36.335Z,6.60
2019-04-13T18:57:06.922Z,6.57
2019-04-13T18:59:37.955Z,6.30
2019-04-13T19:02:08.215Z,5.70
2019-04-13T19:04:38.578Z,6.10
2019-04-13T19:07:08.727Z,6.17
2019-04-13T19:09:39.031Z,6.30
2019-04-13T19:12:09.240Z,6.40
2019-04-13T19:14:39.360Z,7.03
2019-04-13T19:17:09.483Z,5.57
2019-04-13T19:19:39.908Z,6.00
2019-04-13T19:22:10.129Z,6.37
2019-04-13T19:24:40.247Z,6.67
2019-04-13T19:27:10.376Z,5.90
2019-04-13T19:29:40.489Z,6.90
2019-04-13T19:32:10.603Z,6.73
2019-04-13T19:34:40.927Z,6.13
2019-04-13T19:37:11.045Z,6.67
2019-04-13T19:39:41.068Z,7.10
2019-04-13T19:42:11.391Z,6.77
2019-04-13T19:44:41.408Z,7.23
2019-04-13T19:47:11.627Z,6.77
2019-04-13T19:49:41.853Z,7.03
2019-04-13T19:52:19.370Z,6.70
2019-04-13T19:54:49.469Z,6.30
2019-04-13T19:57:19.683Z,6.67
2019-04-13T19:59:49.902Z,6.63
2019-04-13T20:02:21.666Z,6.70
2019-04-13T20:04:51.677Z,5.67
2019-04-13T20:07:21.799Z,7.47
2019-04-13T20:09:51.724Z,6.60
2019-04-13T20:12:21.936Z,6.40
2019-04-13T20:14:52.369Z,6.00
2019-04-13T20:17:22.578Z,7.10
2019-04-13T20:19:52.700Z,6.40
2019-04-13T20:22:23.024Z,8.03
2019-04-13T20:24:53.251Z,7.20
2019-04-13T20:27:23.923Z,7.27
2019-04-13T20:29:55.437Z,6.47
2019-04-13T20:32:25.751Z,6.30
2019-04-13T20:34:55.880Z,7.43
2019-04-13T20:37:27.266Z,6.40
2019-04-13T20:39:59.278Z,6.27
2019-04-13T20:42:30.963Z,6.47
2019-04-13T20:45:02.787Z,6.03
2019-04-13T20:47:33.132Z,6.93
2019-04-13T20:50:04.480Z,7.00
2019-04-13T20:52:35.208Z,7.17
2019-04-13T20:55:06.952Z,7.03
2019-04-13T20:57:39.040Z,6.50
2019-04-13T21:00:09.864Z,6.10
2019-04-13T21:02:40.089Z,7.47
2019-04-13T21:05:10.407Z,6.03
2019-04-13T21:07:42.273Z,5.90
2019-04-13T21:10:12.904Z,5.67
2019-04-13T21:12:43.018Z,6.47
2019-04-13T21:15:13.902Z,6.83
2019-04-13T21:17:44.281Z,6.40
2019-04-13T21:20:16.475Z,5.93
2019-04-13T21:22:46.770Z,6.30
2019-04-13T21:25:16.890Z,6.30
2019-04-13T21:27:47.319Z,6.50
2019-04-13T21:30:18.556Z,6.60
2019-04-13T21:32:49.201Z,5.73
2019-04-13T21:35:19.519Z,5.70
2019-04-13T21:37:50.779Z,6.07
2019-04-13T21:40:21.194Z,6.10
2019-04-13T21:42:51.408Z,6.03
2019-04-13T21:45:21.431Z,6.53
2019-04-13T21:47:51.620Z,5.50
2019-04-13T21:50:39.100Z,6.33
2019-04-13T21:53:16.771Z,5.90
2019-04-13T21:55:48.939Z,5.23
2019-04-13T21:58:19.060Z,5.40
2019-04-13T22:01:19.145Z,5.77
2019-04-13T22:03:51.154Z,5.80
2019-04-13T22:06:21.573Z,5.57
2019-04-13T22:08:51.691Z,7.00
2019-04-13T22:11:23.207Z,5.40
2019-04-13T22:13:53.667Z,5.93
2019-04-13T22:16:23.786Z,5.07
2019-04-13T22:18:54.010Z,5.90
2019-04-13T22:21:24.254Z,6.23
2019-04-13T22:23:54.882Z,6.10
2019-04-13T22:26:26.154Z,6.27
2019-04-13T22:29:15.741Z,6.80
2019-04-13T22:31:54.752Z,5.07
2019-04-13T22:34:42.616Z,4.33
2019-04-13T22:37:12.692Z,4.57
2019-04-13T22:39:44.145Z,5.20
2019-04-13T22:42:14.512Z,5.10
2019-04-13T22:44:52.955Z,5.30
2019-04-13T22:47:18.792Z,5.80
2019-04-13T22:49:51.641Z,4.63
2019-04-13T22:52:40.895Z,4.73
2019-04-13T22:55:22.870Z,4.67
2019-04-13T22:57:54.301Z,4.50
2019-04-13T23:00:26.354Z,5.00
2019-04-13T23:02:56.458Z,5.53
2019-04-13T23:05:26.575Z,5.27
2019-04-13T23:07:56.872Z,4.67
2019-04-13T23:10:27.125Z,5.50
2019-04-13T23:12:57.261Z,6.30
2019-04-13T23:15:32.717Z,4.70
2019-04-13T23:17:59.448Z,4.93
2019-04-13T23:20:29.998Z,4.87
2019-04-13T23:23:00.664Z,5.13
2019-04-13T23:25:31.232Z,4.13
2019-04-13T23:28:01.640Z,5.10
2019-04-13T23:30:31.759Z,4.67
2019-04-13T23:33:01.843Z,4.60
2019-04-13T23:35:32.310Z,4.10
2019-04-13T23:38:02.879Z,4.87
2019-04-13T23:40:33.574Z,4.83
2019-04-13T23:43:03.883Z,4.87
2019-04-13T23:45:36.812Z,5.13
2019-04-13T23:48:06.830Z,4.47
2019-04-13T23:50:37.165Z,5.10
2019-04-13T23:53:07.646Z,4.97
2019-04-13T23:55:55.411Z,4.80
2019-04-13T23:58:40.884Z,4.20
